sensor_id;sensor_type;location;lat;lon;timestamp;temperature;humidity
16879;DHT22;8556;52.218;9.884;2023-03-01T00:01:38;-2.50;99.90
16879;DHT22;8556;52.218;9.884;2023-03-01T00:04:05;-2.40;99.90
16879;DHT22;8556;52.218;9.884;2023-03-01T00:06:32;-2.40;99.90
16879;DHT22;8556;52.218;9.884;2023-03-01T00:08:59;-2.40;99.90
16879;DHT22;8556;52.218;9.884;2023-03-01T00:11:27;-2.60;99.90
16879;DHT22;8556;52.218;9.884;2023-03-01T00:13:56;-2.50;99.90
16879;DHT22;8556;52.218;9.884;2023-03-01T00:16:26;-2.70;99.90
16879;DHT22;8556;52.218;9.884;2023-03-01T00:18:53;-2.80;99.90
16879;DHT22;8556;52.218;9.884;2023-03-01T00:21:21;-2.90;99.90
16879;DHT22;8556;52.218;9.884;2023-03-01T00:23:49;-2.90;99.90
16879;DHT22;8556;52.218;9.884;2023-03-01T00:26:17;-2.70;99.90
16879;DHT22;8556;52.218;9.884;2023-03-01T00:28:44;-2.70;99.90
16879;DHT22;8556;52.218;9.884;2023-03-01T00:31:13;-2.80;99.90
16879;DHT22;8556;52.218;9.884;2023-03-01T00:33:42;-2.80;99.90
16879;DHT22;8556;52.218;9.884;2023-03-01T00:36:11;-2.90;99.90
16879;DHT22;8556;52.218;9.884;2023-03-01T00:38:40;-3.00;99.90
16879;DHT22;8556;52.218;9.884;2023-03-01T00:41:09;-3.20;99.90
16879;DHT22;8556;52.218;9.884;2023-03-01T00:43:37;-3.40;99.90
16879;DHT22;8556;52.218;9.884;2023-03-01T00:46:06;-3.30;99.90
16879;DHT22;8556;52.218;9.884;2023-03-01T00:48:34;-3.30;99.90
16879;DHT22;8556;52.218;9.884;2023-03-01T00:51:06;-3.10;99.90
16879;DHT22;8556;52.218;9.884;2023-03-01T00:53:33;-3.00;99.90
16879;DHT22;8556;52.218;9.884;2023-03-01T00:56:00;-3.10;99.90
16879;DHT22;8556;52.218;9.884;2023-03-01T00:58:27;-3.00;99.90
16879;DHT22;8556;52.218;9.884;2023-03-01T01:00:54;-3.10;99.90
16879;DHT22;8556;52.218;9.884;2023-03-01T01:03:21;-3.30;99.90
16879;DHT22;8556;52.218;9.884;2023-03-01T01:05:50;-3.60;99.90
16879;DHT22;8556;52.218;9.884;2023-03-01T01:08:18;-3.80;99.90
16879;DHT22;8556;52.218;9.884;2023-03-01T01:10:45;-3.80;99.90
16879;DHT22;8556;52.218;9.884;2023-03-01T01:13:13;-3.90;99.90
16879;DHT22;8556;52.218;9.884;2023-03-01T01:15:40;-3.90;99.90
16879;DHT22;8556;52.218;9.884;2023-03-01T01:18:07;-3.80;99.90
16879;DHT22;8556;52.218;9.884;2023-03-01T01:20:35;-3.80;99.90
16879;DHT22;8556;52.218;9.884;2023-03-01T01:23:05;-3.80;99.90
16879;DHT22;8556;52.218;9.884;2023-03-01T01:25:35;-3.80;99.90
16879;DHT22;8556;52.218;9.884;2023-03-01T01:28:03;-3.70;99.90
16879;DHT22;8556;52.218;9.884;2023-03-01T01:30:29;-3.70;99.90
16879;DHT22;8556;52.218;9.884;2023-03-01T01:32:56;-3.50;99.90
16879;DHT22;8556;52.218;9.884;2023-03-01T01:35:23;-3.40;99.90
16879;DHT22;8556;52.218;9.884;2023-03-01T01:37:50;-3.40;99.90
16879;DHT22;8556;52.218;9.884;2023-03-01T01:40:17;-3.60;99.90
16879;DHT22;8556;52.218;9.884;2023-03-01T01:42:45;-3.60;99.90
16879;DHT22;8556;52.218;9.884;2023-03-01T01:45:31;-3.60;99.90
16879;DHT22;8556;52.218;9.884;2023-03-01T01:48:01;-3.40;99.90
16879;DHT22;8556;52.218;9.884;2023-03-01T01:50:30;-3.40;99.90
16879;DHT22;8556;52.218;9.884;2023-03-01T01:53:09;-3.70;99.90
16879;DHT22;8556;52.218;9.884;2023-03-01T01:55:41;-3.90;99.90
16879;DHT22;8556;52.218;9.884;2023-03-01T01:58:11;-4.00;99.90
16879;DHT22;8556;52.218;9.884;2023-03-01T02:00:40;-4.10;99.90
16879;DHT22;8556;52.218;9.884;2023-03-01T02:03:11;-4.20;99.90
16879;DHT22;8556;52.218;9.884;2023-03-01T02:05:49;-4.10;99.90
16879;DHT22;8556;52.218;9.884;2023-03-01T02:08:19;-4.10;99.90
16879;DHT22;8556;52.218;9.884;2023-03-01T02:10:48;-4.10;99.90
16879;DHT22;8556;52.218;9.884;2023-03-01T02:13:17;-4.00;99.90
16879;DHT22;8556;52.218;9.884;2023-03-01T02:15:44;-4.00;99.90
16879;DHT22;8556;52.218;9.884;2023-03-01T02:18:16;-4.10;99.90
16879;DHT22;8556;52.218;9.884;2023-03-01T02:20:51;-4.00;99.90
16879;DHT22;8556;52.218;9.884;2023-03-01T02:23:19;-4.10;99.90
16879;DHT22;8556;52.218;9.884;2023-03-01T02:25:54;-3.90;99.90
16879;DHT22;8556;52.218;9.884;2023-03-01T02:28:29;-3.90;99.90
16879;DHT22;8556;52.218;9.884;2023-03-01T02:30:56;-4.00;99.90
16879;DHT22;8556;52.218;9.884;2023-03-01T02:33:41;-4.20;99.90
16879;DHT22;8556;52.218;9.884;2023-03-01T02:36:12;-4.30;99.90
16879;DHT22;8556;52.218;9.884;2023-03-01T02:38:40;-4.10;99.90
16879;DHT22;8556;52.218;9.884;2023-03-01T02:41:08;-4.00;99.90
16879;DHT22;8556;52.218;9.884;2023-03-01T02:43:39;-4.10;99.90
16879;DHT22;8556;52.218;9.884;2023-03-01T02:46:08;-4.40;99.90
16879;DHT22;8556;52.218;9.884;2023-03-01T02:48:43;-4.50;99.90
16879;DHT22;8556;52.218;9.884;2023-03-01T02:51:18;-4.30;99.90
16879;DHT22;8556;52.218;9.884;2023-03-01T02:53:56;-4.20;99.90
16879;DHT22;8556;52.218;9.884;2023-03-01T02:56:26;-4.20;99.90
16879;DHT22;8556;52.218;9.884;2023-03-01T02:58:54;-4.40;99.90
16879;DHT22;8556;52.218;9.884;2023-03-01T03:01:26;-4.30;99.90
16879;DHT22;8556;52.218;9.884;2023-03-01T03:04:02;-4.30;99.90
16879;DHT22;8556;52.218;9.884;2023-03-01T03:06:29;-4.30;99.90
16879;DHT22;8556;52.218;9.884;2023-03-01T03:08:56;-4.40;99.90
16879;DHT22;8556;52.218;9.884;2023-03-01T03:11:23;-4.40;99.90
16879;DHT22;8556;52.218;9.884;2023-03-01T03:13:50;-4.50;99.90
16879;DHT22;8556;52.218;9.884;2023-03-01T03:16:19;-4.50;99.90
16879;DHT22;8556;52.218;9.884;2023-03-01T03:18:46;-4.40;99.90
16879;DHT22;8556;52.218;9.884;2023-03-01T03:21:13;-4.30;99.90
16879;DHT22;8556;52.218;9.884;2023-03-01T03:23:40;-4.40;99.90
16879;DHT22;8556;52.218;9.884;2023-03-01T03:26:07;-4.50;99.90
16879;DHT22;8556;52.218;9.884;2023-03-01T03:28:35;-4.20;99.90
16879;DHT22;8556;52.218;9.884;2023-03-01T03:31:06;-4.20;99.90
16879;DHT22;8556;52.218;9.884;2023-03-01T03:33:34;-4.40;99.90
16879;DHT22;8556;52.218;9.884;2023-03-01T03:36:01;-4.30;99.90
16879;DHT22;8556;52.218;9.884;2023-03-01T03:38:28;-4.20;99.90
16879;DHT22;8556;52.218;9.884;2023-03-01T03:41:00;-4.10;99.90
16879;DHT22;8556;52.218;9.884;2023-03-01T03:43:28;-4.10;99.90
16879;DHT22;8556;52.218;9.884;2023-03-01T03:45:55;-4.10;99.90
16879;DHT22;8556;52.218;9.884;2023-03-01T03:48:24;-4.10;99.90
16879;DHT22;8556;52.218;9.884;2023-03-01T03:50:54;-4.10;99.90
16879;DHT22;8556;52.218;9.884;2023-03-01T03:53:22;-4.20;99.90
16879;DHT22;8556;52.218;9.884;2023-03-01T03:55:50;-4.10;99.90
16879;DHT22;8556;52.218;9.884;2023-03-01T03:58:18;-4.10;99.90
16879;DHT22;8556;52.218;9.884;2023-03-01T04:00:47;-4.10;99.90
16879;DHT22;8556;52.218;9.884;2023-03-01T04:03:16;-4.10;99.90
16879;DHT22;8556;52.218;9.884;2023-03-01T04:05:44;-4.20;99.90
16879;DHT22;8556;52.218;9.884;2023-03-01T04:08:13;-4.30;99.90
16879;DHT22;8556;52.218;9.884;2023-03-01T04:10:42;-4.40;99.90
16879;DHT22;8556;52.218;9.884;2023-03-01T04:13:11;-4.70;99.90
16879;DHT22;8556;52.218;9.884;2023-03-01T04:15:39;-4.50;99.90
16879;DHT22;8556;52.218;9.884;2023-03-01T04:18:06;-4.60;99.90
16879;DHT22;8556;52.218;9.884;2023-03-01T04:20:34;-4.80;99.90
16879;DHT22;8556;52.218;9.884;2023-03-01T04:23:03;-5.00;99.90
16879;DHT22;8556;52.218;9.884;2023-03-01T04:25:38;-5.00;99.90
16879;DHT22;8556;52.218;9.884;2023-03-01T04:28:05;-4.80;99.90
16879;DHT22;8556;52.218;9.884;2023-03-01T04:30:32;-5.00;99.90
16879;DHT22;8556;52.218;9.884;2023-03-01T04:33:02;-5.00;99.90
16879;DHT22;8556;52.218;9.884;2023-03-01T04:35:29;-4.90;99.90
16879;DHT22;8556;52.218;9.884;2023-03-01T04:37:56;-4.90;99.90
16879;DHT22;8556;52.218;9.884;2023-03-01T04:40:23;-4.80;99.90
16879;DHT22;8556;52.218;9.884;2023-03-01T04:42:51;-4.70;99.90
16879;DHT22;8556;52.218;9.884;2023-03-01T04:45:18;-4.70;99.90
16879;DHT22;8556;52.218;9.884;2023-03-01T04:47:46;-4.60;99.90
16879;DHT22;8556;52.218;9.884;2023-03-01T04:50:14;-4.50;99.90
16879;DHT22;8556;52.218;9.884;2023-03-01T04:52:41;-4.60;99.90
16879;DHT22;8556;52.218;9.884;2023-03-01T04:55:09;-4.90;99.90
16879;DHT22;8556;52.218;9.884;2023-03-01T04:57:36;-4.90;99.90
16879;DHT22;8556;52.218;9.884;2023-03-01T05:00:06;-4.80;99.90
16879;DHT22;8556;52.218;9.884;2023-03-01T05:02:46;-4.90;99.90
16879;DHT22;8556;52.218;9.884;2023-03-01T05:05:14;-4.90;99.90
16879;DHT22;8556;52.218;9.884;2023-03-01T05:07:41;-4.90;99.90
16879;DHT22;8556;52.218;9.884;2023-03-01T05:10:09;-5.00;99.90
16879;DHT22;8556;52.218;9.884;2023-03-01T05:12:36;-5.00;99.90
16879;DHT22;8556;52.218;9.884;2023-03-01T05:15:06;-5.10;99.90
16879;DHT22;8556;52.218;9.884;2023-03-01T05:17:33;-5.10;99.90
16879;DHT22;8556;52.218;9.884;2023-03-01T05:20:00;-5.10;99.90
16879;DHT22;8556;52.218;9.884;2023-03-01T05:22:31;-5.30;99.90
16879;DHT22;8556;52.218;9.884;2023-03-01T05:24:57;-5.30;99.90
16879;DHT22;8556;52.218;9.884;2023-03-01T05:27:24;-5.10;99.90
16879;DHT22;8556;52.218;9.884;2023-03-01T05:29:51;-4.90;99.90
16879;DHT22;8556;52.218;9.884;2023-03-01T05:32:19;-4.90;99.90
16879;DHT22;8556;52.218;9.884;2023-03-01T05:34:46;-4.80;99.90
16879;DHT22;8556;52.218;9.884;2023-03-01T05:37:13;-4.80;99.90
16879;DHT22;8556;52.218;9.884;2023-03-01T05:39:40;-4.70;99.90
16879;DHT22;8556;52.218;9.884;2023-03-01T05:42:10;-4.70;99.90
16879;DHT22;8556;52.218;9.884;2023-03-01T05:44:38;-4.80;99.90
16879;DHT22;8556;52.218;9.884;2023-03-01T05:47:05;-4.80;99.90
16879;DHT22;8556;52.218;9.884;2023-03-01T05:49:34;-4.60;99.90
16879;DHT22;8556;52.218;9.884;2023-03-01T05:52:00;-4.70;99.90
16879;DHT22;8556;52.218;9.884;2023-03-01T05:54:27;-4.70;99.90
16879;DHT22;8556;52.218;9.884;2023-03-01T05:56:54;-4.70;99.90
16879;DHT22;8556;52.218;9.884;2023-03-01T05:59:21;-4.70;99.90
16879;DHT22;8556;52.218;9.884;2023-03-01T06:01:48;-4.80;99.90
16879;DHT22;8556;52.218;9.884;2023-03-01T06:04:16;-4.80;99.90
16879;DHT22;8556;52.218;9.884;2023-03-01T06:06:44;-4.80;99.90
16879;DHT22;8556;52.218;9.884;2023-03-01T06:09:11;-4.90;99.90
16879;DHT22;8556;52.218;9.884;2023-03-01T06:11:38;-4.90;99.90
16879;DHT22;8556;52.218;9.884;2023-03-01T06:14:07;-4.90;99.90
16879;DHT22;8556;52.218;9.884;2023-03-01T06:16:35;-4.90;99.90
16879;DHT22;8556;52.218;9.884;2023-03-01T06:19:02;-5.10;99.90
16879;DHT22;8556;52.218;9.884;2023-03-01T06:21:29;-5.20;99.90
16879;DHT22;8556;52.218;9.884;2023-03-01T06:23:57;-5.10;99.90
16879;DHT22;8556;52.218;9.884;2023-03-01T06:26:24;-5.00;99.90
16879;DHT22;8556;52.218;9.884;2023-03-01T06:28:51;-5.10;99.90
16879;DHT22;8556;52.218;9.884;2023-03-01T06:31:17;-5.30;99.90
16879;DHT22;8556;52.218;9.884;2023-03-01T06:33:44;-5.20;99.90
16879;DHT22;8556;52.218;9.884;2023-03-01T06:36:11;-5.20;99.90
16879;DHT22;8556;52.218;9.884;2023-03-01T06:38:38;-5.00;99.90
16879;DHT22;8556;52.218;9.884;2023-03-01T06:41:07;-5.00;99.90
16879;DHT22;8556;52.218;9.884;2023-03-01T06:43:34;-5.10;99.90
16879;DHT22;8556;52.218;9.884;2023-03-01T06:46:04;-5.10;99.90
16879;DHT22;8556;52.218;9.884;2023-03-01T06:48:30;-4.80;99.90
16879;DHT22;8556;52.218;9.884;2023-03-01T06:50:58;-4.60;99.90
16879;DHT22;8556;52.218;9.884;2023-03-01T06:53:26;-4.60;99.90
16879;DHT22;8556;52.218;9.884;2023-03-01T06:55:54;-4.40;99.90
16879;DHT22;8556;52.218;9.884;2023-03-01T06:58:22;-4.50;99.90
16879;DHT22;8556;52.218;9.884;2023-03-01T07:00:49;-4.60;99.90
16879;DHT22;8556;52.218;9.884;2023-03-01T07:03:16;-4.40;99.90
16879;DHT22;8556;52.218;9.884;2023-03-01T07:05:43;-4.30;99.90
16879;DHT22;8556;52.218;9.884;2023-03-01T07:08:10;-4.40;99.90
16879;DHT22;8556;52.218;9.884;2023-03-01T07:10:37;-4.30;99.90
16879;DHT22;8556;52.218;9.884;2023-03-01T07:13:04;-4.30;99.90
16879;DHT22;8556;52.218;9.884;2023-03-01T07:15:33;-4.40;99.90
16879;DHT22;8556;52.218;9.884;2023-03-01T07:18:00;-3.90;99.90
16879;DHT22;8556;52.218;9.884;2023-03-01T07:20:27;-3.50;99.90
16879;DHT22;8556;52.218;9.884;2023-03-01T07:22:55;-3.30;99.90
16879;DHT22;8556;52.218;9.884;2023-03-01T07:25:22;-3.20;99.90
16879;DHT22;8556;52.218;9.884;2023-03-01T07:27:50;-2.70;99.90
16879;DHT22;8556;52.218;9.884;2023-03-01T07:30:17;-2.70;99.90
16879;DHT22;8556;52.218;9.884;2023-03-01T07:32:46;-2.70;99.90
16879;DHT22;8556;52.218;9.884;2023-03-01T07:35:13;-2.70;99.90
16879;DHT22;8556;52.218;9.884;2023-03-01T07:37:40;-2.40;99.90
16879;DHT22;8556;52.218;9.884;2023-03-01T07:40:08;-2.20;99.90
16879;DHT22;8556;52.218;9.884;2023-03-01T07:42:35;-1.70;99.90
16879;DHT22;8556;52.218;9.884;2023-03-01T07:45:02;-0.30;99.90
16879;DHT22;8556;52.218;9.884;2023-03-01T07:47:29;1.80;99.90
16879;DHT22;8556;52.218;9.884;2023-03-01T07:49:57;3.40;99.90
16879;DHT22;8556;52.218;9.884;2023-03-01T07:52:24;2.90;99.90
16879;DHT22;8556;52.218;9.884;2023-03-01T07:54:51;1.30;99.90
16879;DHT22;8556;52.218;9.884;2023-03-01T07:57:17;0.20;99.90
16879;DHT22;8556;52.218;9.884;2023-03-01T07:59:44;-0.40;99.90
16879;DHT22;8556;52.218;9.884;2023-03-01T08:02:11;-0.10;99.90
16879;DHT22;8556;52.218;9.884;2023-03-01T08:04:38;0.40;99.90
16879;DHT22;8556;52.218;9.884;2023-03-01T08:07:06;0.30;99.90
16879;DHT22;8556;52.218;9.884;2023-03-01T08:09:34;1.10;99.90
16879;DHT22;8556;52.218;9.884;2023-03-01T08:12:02;2.10;99.90
16879;DHT22;8556;52.218;9.884;2023-03-01T08:14:30;2.30;99.90
16879;DHT22;8556;52.218;9.884;2023-03-01T08:16:56;1.50;99.90
16879;DHT22;8556;52.218;9.884;2023-03-01T08:19:23;1.60;99.90
16879;DHT22;8556;52.218;9.884;2023-03-01T08:21:50;2.10;99.90
16879;DHT22;8556;52.218;9.884;2023-03-01T08:24:18;3.20;99.90
16879;DHT22;8556;52.218;9.884;2023-03-01T08:26:45;3.50;99.90
16879;DHT22;8556;52.218;9.884;2023-03-01T08:29:12;4.00;99.90
16879;DHT22;8556;52.218;9.884;2023-03-01T08:31:40;3.10;99.90
16879;DHT22;8556;52.218;9.884;2023-03-01T08:34:09;2.30;99.90
16879;DHT22;8556;52.218;9.884;2023-03-01T08:36:37;3.10;99.90
16879;DHT22;8556;52.218;9.884;2023-03-01T08:39:06;3.20;99.90
16879;DHT22;8556;52.218;9.884;2023-03-01T08:41:34;4.50;99.90
16879;DHT22;8556;52.218;9.884;2023-03-01T08:44:01;3.80;99.90
16879;DHT22;8556;52.218;9.884;2023-03-01T08:46:29;3.20;99.90
16879;DHT22;8556;52.218;9.884;2023-03-01T08:48:56;2.50;99.90
16879;DHT22;8556;52.218;9.884;2023-03-01T08:51:24;2.20;99.90
16879;DHT22;8556;52.218;9.884;2023-03-01T08:53:52;2.50;99.90
16879;DHT22;8556;52.218;9.884;2023-03-01T08:56:19;2.20;99.90
16879;DHT22;8556;52.218;9.884;2023-03-01T08:58:48;2.10;99.90
16879;DHT22;8556;52.218;9.884;2023-03-01T09:01:17;1.80;99.90
16879;DHT22;8556;52.218;9.884;2023-03-01T09:03:45;1.70;99.90
16879;DHT22;8556;52.218;9.884;2023-03-01T09:06:12;1.20;99.90
16879;DHT22;8556;52.218;9.884;2023-03-01T09:08:41;1.00;99.90
16879;DHT22;8556;52.218;9.884;2023-03-01T09:11:09;1.10;99.90
16879;DHT22;8556;52.218;9.884;2023-03-01T09:13:37;1.30;99.90
16879;DHT22;8556;52.218;9.884;2023-03-01T09:16:06;1.50;99.90
16879;DHT22;8556;52.218;9.884;2023-03-01T09:18:34;1.50;99.90
16879;DHT22;8556;52.218;9.884;2023-03-01T09:21:02;1.60;99.90
16879;DHT22;8556;52.218;9.884;2023-03-01T09:23:33;1.90;99.90
16879;DHT22;8556;52.218;9.884;2023-03-01T09:25:59;2.10;99.90
16879;DHT22;8556;52.218;9.884;2023-03-01T09:28:26;2.50;99.90
16879;DHT22;8556;52.218;9.884;2023-03-01T09:30:53;2.60;99.90
16879;DHT22;8556;52.218;9.884;2023-03-01T09:33:21;2.90;99.90
16879;DHT22;8556;52.218;9.884;2023-03-01T09:35:48;3.10;99.90
16879;DHT22;8556;52.218;9.884;2023-03-01T09:38:15;3.20;99.90
16879;DHT22;8556;52.218;9.884;2023-03-01T09:40:42;3.20;99.90
16879;DHT22;8556;52.218;9.884;2023-03-01T09:43:15;3.00;99.90
16879;DHT22;8556;52.218;9.884;2023-03-01T09:45:46;3.00;99.90
16879;DHT22;8556;52.218;9.884;2023-03-01T09:48:18;3.40;99.90
16879;DHT22;8556;52.218;9.884;2023-03-01T09:50:48;3.30;99.90
16879;DHT22;8556;52.218;9.884;2023-03-01T09:53:18;3.30;99.90
16879;DHT22;8556;52.218;9.884;2023-03-01T09:55:50;3.40;99.90
16879;DHT22;8556;52.218;9.884;2023-03-01T09:58:37;3.40;99.90
16879;DHT22;8556;52.218;9.884;2023-03-01T10:01:20;3.60;99.90
16879;DHT22;8556;52.218;9.884;2023-03-01T10:04:04;3.60;99.90
16879;DHT22;8556;52.218;9.884;2023-03-01T10:06:34;3.90;99.90
16879;DHT22;8556;52.218;9.884;2023-03-01T10:09:05;3.80;99.90
16879;DHT22;8556;52.218;9.884;2023-03-01T10:11:35;3.90;99.90
16879;DHT22;8556;52.218;9.884;2023-03-01T10:14:07;3.90;99.90
16879;DHT22;8556;52.218;9.884;2023-03-01T10:16:43;4.10;99.90
16879;DHT22;8556;52.218;9.884;2023-03-01T10:19:20;4.10;99.90
16879;DHT22;8556;52.218;9.884;2023-03-01T10:21:51;4.00;99.90
16879;DHT22;8556;52.218;9.884;2023-03-01T10:24:19;4.20;99.90
16879;DHT22;8556;52.218;9.884;2023-03-01T10:26:54;4.50;99.90
16879;DHT22;8556;52.218;9.884;2023-03-01T10:29:26;4.40;99.90
16879;DHT22;8556;52.218;9.884;2023-03-01T10:31:55;4.60;99.90
16879;DHT22;8556;52.218;9.884;2023-03-01T10:34:28;4.50;99.90
16879;DHT22;8556;52.218;9.884;2023-03-01T10:36:59;4.60;99.90
16879;DHT22;8556;52.218;9.884;2023-03-01T10:39:28;4.60;99.90
16879;DHT22;8556;52.218;9.884;2023-03-01T10:41:57;4.80;99.90
16879;DHT22;8556;52.218;9.884;2023-03-01T10:44:37;4.90;99.90
16879;DHT22;8556;52.218;9.884;2023-03-01T10:47:05;4.70;99.90
16879;DHT22;8556;52.218;9.884;2023-03-01T10:49:38;4.80;99.90
16879;DHT22;8556;52.218;9.884;2023-03-01T10:52:18;4.70;99.90
16879;DHT22;8556;52.218;9.884;2023-03-01T10:54:52;4.80;99.90
16879;DHT22;8556;52.218;9.884;2023-03-01T10:57:29;4.80;99.90
16879;DHT22;8556;52.218;9.884;2023-03-01T11:00:24;4.80;99.90
16879;DHT22;8556;52.218;9.884;2023-03-01T11:03:03;5.00;99.90
16879;DHT22;8556;52.218;9.884;2023-03-01T11:05:35;5.10;99.90
16879;DHT22;8556;52.218;9.884;2023-03-01T11:08:04;5.00;99.90
16879;DHT22;8556;52.218;9.884;2023-03-01T11:10:32;5.10;99.90
16879;DHT22;8556;52.218;9.884;2023-03-01T11:13:07;5.20;99.90
16879;DHT22;8556;52.218;9.884;2023-03-01T11:15:35;5.30;99.90
16879;DHT22;8556;52.218;9.884;2023-03-01T11:18:02;5.30;99.90
16879;DHT22;8556;52.218;9.884;2023-03-01T11:20:32;5.40;99.90
16879;DHT22;8556;52.218;9.884;2023-03-01T11:23:02;5.10;99.90
16879;DHT22;8556;52.218;9.884;2023-03-01T11:25:35;5.30;99.90
16879;DHT22;8556;52.218;9.884;2023-03-01T11:28:05;5.40;99.90
16879;DHT22;8556;52.218;9.884;2023-03-01T11:30:35;5.40;99.90
16879;DHT22;8556;52.218;9.884;2023-03-01T11:33:15;5.10;99.90
16879;DHT22;8556;52.218;9.884;2023-03-01T11:35:47;5.10;99.90
16879;DHT22;8556;52.218;9.884;2023-03-01T11:38:21;5.30;99.90
16879;DHT22;8556;52.218;9.884;2023-03-01T11:40:54;5.40;99.90
16879;DHT22;8556;52.218;9.884;2023-03-01T11:43:28;5.40;99.90
16879;DHT22;8556;52.218;9.884;2023-03-01T11:46:36;5.40;99.90
16879;DHT22;8556;52.218;9.884;2023-03-01T11:52:12;5.60;99.90
16879;DHT22;8556;52.218;9.884;2023-03-01T11:54:54;5.80;99.90
16879;DHT22;8556;52.218;9.884;2023-03-01T11:57:40;5.50;99.90
16879;DHT22;8556;52.218;9.884;2023-03-01T12:00:19;5.50;99.90
16879;DHT22;8556;52.218;9.884;2023-03-01T12:03:21;5.80;99.90
16879;DHT22;8556;52.218;9.884;2023-03-01T12:09:02;6.10;99.90
16879;DHT22;8556;52.218;9.884;2023-03-01T12:11:43;5.90;99.90
16879;DHT22;8556;52.218;9.884;2023-03-01T12:14:34;6.10;99.90
16879;DHT22;8556;52.218;9.884;2023-03-01T12:17:34;5.90;99.90
16879;DHT22;8556;52.218;9.884;2023-03-01T12:20:13;6.20;99.90
16879;DHT22;8556;52.218;9.884;2023-03-01T12:22:51;6.10;99.90
16879;DHT22;8556;52.218;9.884;2023-03-01T12:25:25;5.90;36.10
16879;DHT22;8556;52.218;9.884;2023-03-01T12:28:22;6.10;99.90
16879;DHT22;8556;52.218;9.884;2023-03-01T12:31:09;6.00;98.00
16879;DHT22;8556;52.218;9.884;2023-03-01T12:33:45;6.00;95.60
16879;DHT22;8556;52.218;9.884;2023-03-01T12:36:39;6.10;74.60
16879;DHT22;8556;52.218;9.884;2023-03-01T12:39:24;6.10;98.00
16879;DHT22;8556;52.218;9.884;2023-03-01T12:42:02;6.60;99.90
16879;DHT22;8556;52.218;9.884;2023-03-01T12:44:41;6.20;78.30
16879;DHT22;8556;52.218;9.884;2023-03-01T12:47:23;6.20;37.80
16879;DHT22;8556;52.218;9.884;2023-03-01T12:49:54;6.30;56.00
16879;DHT22;8556;52.218;9.884;2023-03-01T12:52:27;6.30;28.50
16879;DHT22;8556;52.218;9.884;2023-03-01T12:54:57;6.60;38.30
16879;DHT22;8556;52.218;9.884;2023-03-01T12:57:29;7.20;1.00
16879;DHT22;8556;52.218;9.884;2023-03-01T13:00:10;8.00;96.00
16879;DHT22;8556;52.218;9.884;2023-03-01T13:02:49;8.30;99.90
16879;DHT22;8556;52.218;9.884;2023-03-01T13:05:33;8.30;43.00
16879;DHT22;8556;52.218;9.884;2023-03-01T13:08:07;7.40;1.00
16879;DHT22;8556;52.218;9.884;2023-03-01T13:10:42;6.50;1.00
16879;DHT22;8556;52.218;9.884;2023-03-01T13:13:19;6.50;1.00
16879;DHT22;8556;52.218;9.884;2023-03-01T13:15:46;6.70;1.00
16879;DHT22;8556;52.218;9.884;2023-03-01T13:18:32;6.60;1.00
16879;DHT22;8556;52.218;9.884;2023-03-01T13:21:01;6.60;1.00
16879;DHT22;8556;52.218;9.884;2023-03-01T13:23:32;6.60;1.00
16879;DHT22;8556;52.218;9.884;2023-03-01T13:26:14;6.40;1.00
16879;DHT22;8556;52.218;9.884;2023-03-01T13:28:50;6.70;1.00
16879;DHT22;8556;52.218;9.884;2023-03-01T13:34:44;6.60;1.00
16879;DHT22;8556;52.218;9.884;2023-03-01T13:37:20;6.50;1.00
16879;DHT22;8556;52.218;9.884;2023-03-01T13:39:47;6.30;1.00
16879;DHT22;8556;52.218;9.884;2023-03-01T13:42:44;6.40;1.00
16879;DHT22;8556;52.218;9.884;2023-03-01T13:45:21;6.70;1.00
16879;DHT22;8556;52.218;9.884;2023-03-01T13:47:53;6.50;1.00
16879;DHT22;8556;52.218;9.884;2023-03-01T13:50:25;6.40;1.00
16879;DHT22;8556;52.218;9.884;2023-03-01T13:52:56;6.60;1.00
16879;DHT22;8556;52.218;9.884;2023-03-01T13:55:29;6.40;1.00
16879;DHT22;8556;52.218;9.884;2023-03-01T13:57:59;6.40;1.00
16879;DHT22;8556;52.218;9.884;2023-03-01T14:00:30;6.30;1.00
16879;DHT22;8556;52.218;9.884;2023-03-01T14:03:02;6.50;1.00
16879;DHT22;8556;52.218;9.884;2023-03-01T14:05:31;6.20;99.90
16879;DHT22;8556;52.218;9.884;2023-03-01T14:07:58;6.50;1.00
16879;DHT22;8556;52.218;9.884;2023-03-01T14:10:32;6.50;1.00
16879;DHT22;8556;52.218;9.884;2023-03-01T14:13:12;6.40;1.00
16879;DHT22;8556;52.218;9.884;2023-03-01T14:15:49;6.30;1.00
16879;DHT22;8556;52.218;9.884;2023-03-01T14:18:21;6.40;99.90
16879;DHT22;8556;52.218;9.884;2023-03-01T14:20:51;6.70;1.00
16879;DHT22;8556;52.218;9.884;2023-03-01T14:23:20;6.60;1.00
16879;DHT22;8556;52.218;9.884;2023-03-01T14:25:49;6.50;99.90
16879;DHT22;8556;52.218;9.884;2023-03-01T14:28:18;6.60;99.90
16879;DHT22;8556;52.218;9.884;2023-03-01T14:30:48;6.30;99.90
16879;DHT22;8556;52.218;9.884;2023-03-01T14:33:21;6.40;99.90
16879;DHT22;8556;52.218;9.884;2023-03-01T14:35:59;6.30;99.90
16879;DHT22;8556;52.218;9.884;2023-03-01T14:38:32;6.30;99.90
16879;DHT22;8556;52.218;9.884;2023-03-01T14:41:02;6.30;99.90
16879;DHT22;8556;52.218;9.884;2023-03-01T14:43:30;6.20;99.90
16879;DHT22;8556;52.218;9.884;2023-03-01T14:45:57;6.40;99.90
16879;DHT22;8556;52.218;9.884;2023-03-01T14:48:24;6.30;99.90
16879;DHT22;8556;52.218;9.884;2023-03-01T14:50:53;6.30;99.90
16879;DHT22;8556;52.218;9.884;2023-03-01T14:53:24;6.30;99.90
16879;DHT22;8556;52.218;9.884;2023-03-01T14:55:54;6.30;99.90
16879;DHT22;8556;52.218;9.884;2023-03-01T14:58:22;6.20;99.90
16879;DHT22;8556;52.218;9.884;2023-03-01T15:00:51;6.20;99.90
16879;DHT22;8556;52.218;9.884;2023-03-01T15:03:25;6.30;99.90
16879;DHT22;8556;52.218;9.884;2023-03-01T15:05:52;6.30;99.90
16879;DHT22;8556;52.218;9.884;2023-03-01T15:08:22;6.30;99.90
16879;DHT22;8556;52.218;9.884;2023-03-01T15:11:00;6.10;99.90
16879;DHT22;8556;52.218;9.884;2023-03-01T15:13:31;6.10;99.90
16879;DHT22;8556;52.218;9.884;2023-03-01T15:16:04;6.00;99.90
16879;DHT22;8556;52.218;9.884;2023-03-01T15:18:32;6.00;99.90
16879;DHT22;8556;52.218;9.884;2023-03-01T15:21:06;6.10;99.90
16879;DHT22;8556;52.218;9.884;2023-03-01T15:23:36;6.00;99.90
16879;DHT22;8556;52.218;9.884;2023-03-01T15:26:04;5.90;82.10
16879;DHT22;8556;52.218;9.884;2023-03-01T15:28:33;5.90;99.90
16879;DHT22;8556;52.218;9.884;2023-03-01T15:31:03;5.90;67.00
16879;DHT22;8556;52.218;9.884;2023-03-01T15:33:35;5.90;67.50
16879;DHT22;8556;52.218;9.884;2023-03-01T15:38:55;5.80;10.70
16879;DHT22;8556;52.218;9.884;2023-03-01T15:41:24;5.90;30.70
16879;DHT22;8556;52.218;9.884;2023-03-01T15:43:52;5.80;9.20
16879;DHT22;8556;52.218;9.884;2023-03-01T15:46:25;5.70;1.00
16879;DHT22;8556;52.218;9.884;2023-03-01T15:48:54;5.70;41.80
16879;DHT22;8556;52.218;9.884;2023-03-01T15:51:33;5.60;1.00
16879;DHT22;8556;52.218;9.884;2023-03-01T15:54:05;5.50;1.00
16879;DHT22;8556;52.218;9.884;2023-03-01T15:56:33;5.40;1.00
16879;DHT22;8556;52.218;9.884;2023-03-01T15:59:01;5.50;99.90
16879;DHT22;8556;52.218;9.884;2023-03-01T16:01:29;5.50;1.00
16879;DHT22;8556;52.218;9.884;2023-03-01T16:03:56;5.40;99.90
16879;DHT22;8556;52.218;9.884;2023-03-01T16:06:24;5.40;1.00
16879;DHT22;8556;52.218;9.884;2023-03-01T16:08:51;5.30;1.00
16879;DHT22;8556;52.218;9.884;2023-03-01T16:11:20;5.10;1.00
16879;DHT22;8556;52.218;9.884;2023-03-01T16:13:47;5.10;1.00
16879;DHT22;8556;52.218;9.884;2023-03-01T16:16:16;5.00;1.00
16879;DHT22;8556;52.218;9.884;2023-03-01T16:18:44;4.80;1.00
16879;DHT22;8556;52.218;9.884;2023-03-01T16:21:18;4.80;1.00
16879;DHT22;8556;52.218;9.884;2023-03-01T16:23:46;4.70;1.00
16879;DHT22;8556;52.218;9.884;2023-03-01T16:26:13;4.50;1.00
16879;DHT22;8556;52.218;9.884;2023-03-01T16:28:42;4.50;1.00